createdAt,value
2017-11-28T00:02:10.435Z,100252.18
2017-11-28T00:04:44.787Z,100246.96
2017-11-28T00:07:18.778Z,100253.26
2017-11-28T00:09:49.816Z,100255.91
2017-11-28T00:12:26.391Z,100250.36
2017-11-28T00:15:00.064Z,100242.50
2017-11-28T00:17:34.893Z,100237.26
2017-11-28T00:20:08.871Z,100248.69
2017-11-28T00:22:49.193Z,100243.70
2017-11-28T00:25:24.575Z,100237.19
2017-11-28T00:27:59.081Z,100236.14
2017-11-28T00:30:37.186Z,100227.45
2017-11-28T00:33:10.578Z,100226.49
2017-11-28T00:35:50.572Z,100222.30
2017-11-28T00:38:23.288Z,100229.37
2017-11-28T00:40:57.078Z,100230.81
2017-11-28T00:43:30.290Z,100227.14
2017-11-28T00:46:02.776Z,100227.95
2017-11-28T00:48:34.529Z,100231.01
2017-11-28T00:51:09.569Z,100229.44
2017-11-28T00:53:43.184Z,100221.27
2017-11-28T00:56:16.690Z,100220.78
2017-11-28T00:58:49.882Z,100224.94
2017-11-28T01:01:22.575Z,100216.48
2017-11-28T01:03:55.199Z,100224.99
2017-11-28T01:06:28.104Z,100220.31
2017-11-28T01:09:00.095Z,100220.67
2017-11-28T01:11:33.022Z,100212.81
2017-11-28T01:14:07.009Z,100214.39
2017-11-28T01:16:41.409Z,100227.73
2017-11-28T01:19:14.409Z,100223.98
2017-11-28T01:21:49.115Z,100217.75
2017-11-28T01:24:21.831Z,100214.80
2017-11-28T01:26:55.030Z,100218.72
2017-11-28T01:29:26.863Z,100220.81
2017-11-28T01:31:59.615Z,100221.17
2017-11-28T01:34:31.716Z,100219.73
2017-11-28T01:37:04.112Z,100225.22
2017-11-28T01:39:36.212Z,100228.89
2017-11-28T01:42:09.308Z,100234.38
2017-11-28T01:44:42.821Z,100221.80
2017-11-28T01:47:15.981Z,100217.22
2017-11-28T01:49:48.290Z,100216.31
2017-11-28T01:52:20.881Z,100207.11
2017-11-28T01:54:54.173Z,100213.82
2017-11-28T01:57:27.681Z,100214.09
2017-11-28T02:00:01.197Z,100213.29
2017-11-28T02:02:39.978Z,100207.15
2017-11-28T02:05:13.674Z,100216.23
2017-11-28T02:07:48.375Z,100208.64
2017-11-28T02:10:20.785Z,100212.34
2017-11-28T02:12:55.189Z,100209.69
2017-11-28T02:15:27.695Z,100201.80
2017-11-28T02:18:00.197Z,100203.05
2017-11-28T02:20:32.518Z,100198.81
2017-11-28T02:23:05.800Z,100195.68
2017-11-28T02:25:39.222Z,100192.80
2017-11-28T02:28:11.630Z,100191.41
2017-11-28T02:30:44.936Z,100190.21
2017-11-28T02:33:17.640Z,100184.47
2017-11-28T02:35:50.042Z,100172.47
2017-11-28T02:38:23.052Z,100161.84
2017-11-28T02:41:03.049Z,100163.34
2017-11-28T02:43:35.575Z,100158.06
2017-11-28T02:46:08.145Z,100146.66
2017-11-28T02:48:41.737Z,100146.91
2017-11-28T02:51:14.344Z,100144.59
2017-11-28T02:56:26.654Z,100129.09
2017-11-28T02:58:58.926Z,100139.72
2017-11-28T03:01:31.834Z,100154.02
2017-11-28T03:04:06.722Z,100151.47
2017-11-28T03:06:41.796Z,100161.17
2017-11-28T03:09:14.240Z,100168.23
2017-11-28T03:11:46.926Z,100161.17
2017-11-28T03:14:19.221Z,100161.12
2017-11-28T03:16:53.423Z,100166.75
2017-11-28T03:19:31.423Z,100157.81
2017-11-28T03:22:06.409Z,100151.38
2017-11-28T03:24:40.325Z,100158.04
2017-11-28T03:27:11.418Z,100153.22
2017-11-28T03:29:45.319Z,100145.73
2017-11-28T03:32:17.410Z,100143.98
2017-11-28T03:34:47.964Z,100145.80
2017-11-28T03:37:26.137Z,100147.47
2017-11-28T03:40:00.340Z,100145.89
2017-11-28T03:42:36.532Z,100142.72
2017-11-28T03:47:45.395Z,100142.30
2017-11-28T03:50:18.252Z,100139.17
2017-11-28T03:52:51.641Z,100136.09
2017-11-28T03:55:23.660Z,100134.22
2017-11-28T03:57:55.785Z,100129.96
2017-11-28T04:00:27.694Z,100138.73
2017-11-28T04:02:59.143Z,100142.88
2017-11-28T04:05:31.175Z,100140.97
2017-11-28T04:08:05.096Z,100143.43
2017-11-28T04:10:36.560Z,100152.03
2017-11-28T04:13:07.539Z,100146.15
2017-11-28T04:15:43.646Z,100139.37
2017-11-28T04:18:16.002Z,100143.42
2017-11-28T04:20:46.998Z,100146.98
2017-11-28T04:26:00.699Z,100149.80
2017-11-28T04:28:31.929Z,100146.08
2017-11-28T04:31:13.694Z,100148.55
2017-11-28T04:33:45.551Z,100142.94
2017-11-28T04:36:17.366Z,100145.59
2017-11-28T04:38:48.751Z,100150.00
2017-11-28T04:41:20.826Z,100133.79
2017-11-28T04:43:56.583Z,100144.76
2017-11-28T04:46:28.813Z,100140.05
2017-11-28T04:49:00.592Z,100135.88
2017-11-28T04:51:35.098Z,100132.61
2017-11-28T04:54:24.075Z,100141.48
2017-11-28T04:56:58.737Z,100125.81
2017-11-28T04:59:30.081Z,100133.58
2017-11-28T05:02:06.096Z,100142.52
2017-11-28T05:04:39.546Z,100146.22
2017-11-28T05:07:15.607Z,100148.87
2017-11-28T05:09:46.748Z,100145.52
2017-11-28T05:12:19.291Z,100135.61
2017-11-28T05:14:51.382Z,100135.55
2017-11-28T05:17:23.950Z,100136.87
2017-11-28T05:19:54.661Z,100134.96
2017-11-28T05:22:27.122Z,100137.42
2017-11-28T05:25:04.132Z,100134.28
2017-11-28T05:27:39.326Z,100124.28
2017-11-28T05:30:19.237Z,100117.71
2017-11-28T05:32:52.632Z,100136.58
2017-11-28T05:35:25.836Z,100133.21
2017-11-28T05:37:58.911Z,100132.59
2017-11-28T05:40:31.338Z,100133.98
2017-11-28T05:43:04.322Z,100135.18
2017-11-28T05:45:37.390Z,100140.97
2017-11-28T05:48:13.429Z,100131.88
2017-11-28T05:50:48.036Z,100145.94
2017-11-28T05:53:25.622Z,100146.77
2017-11-28T05:55:56.803Z,100153.33
2017-11-28T05:58:27.952Z,100160.09
2017-11-28T06:01:01.057Z,100154.30
2017-11-28T06:03:33.929Z,100152.73
2017-11-28T06:06:09.037Z,100158.34
2017-11-28T06:08:42.525Z,100163.99
2017-11-28T06:11:15.737Z,100159.81
2017-11-28T06:13:48.696Z,100159.78
2017-11-28T06:16:20.714Z,100166.50
2017-11-28T06:18:54.213Z,100160.65
2017-11-28T06:21:28.206Z,100167.13
2017-11-28T06:24:00.733Z,100171.24
2017-11-28T06:26:33.406Z,100168.41
2017-11-28T06:29:07.603Z,100174.16
2017-11-28T06:31:46.702Z,100182.06
2017-11-28T06:34:20.405Z,100181.41
2017-11-28T06:36:58.214Z,100186.50
2017-11-28T06:39:31.599Z,100186.41
2017-11-28T06:42:04.709Z,100188.67
2017-11-28T06:44:37.715Z,100184.58
2017-11-28T06:47:10.922Z,100167.33
2017-11-28T06:49:44.429Z,100193.66
2017-11-28T06:52:21.029Z,100195.75
2017-11-28T06:54:55.181Z,100193.94
2017-11-28T06:57:27.770Z,100199.98
2017-11-28T07:00:00.563Z,100203.44
2017-11-28T07:02:36.652Z,100202.87
2017-11-28T07:05:09.265Z,100206.95
2017-11-28T07:07:42.692Z,100205.92
2017-11-28T07:10:16.456Z,100207.41
2017-11-28T07:12:51.653Z,100209.75
2017-11-28T07:15:24.058Z,100198.19
2017-11-28T07:17:56.260Z,100204.71
2017-11-28T07:20:28.957Z,100205.23
2017-11-28T07:23:01.339Z,100210.37
2017-11-28T07:25:33.645Z,100212.91
2017-11-28T07:28:08.837Z,100201.98
2017-11-28T07:30:43.232Z,100188.83
2017-11-28T07:33:16.030Z,100216.00
2017-11-28T07:35:49.030Z,100203.63
2017-11-28T07:38:24.855Z,100223.59
2017-11-28T07:40:57.926Z,100216.91
2017-11-28T07:43:30.531Z,100219.90
2017-11-28T07:46:03.059Z,100222.75
2017-11-28T07:48:36.017Z,100222.17
2017-11-28T07:51:08.785Z,100226.41
2017-11-28T07:53:43.319Z,100229.02
2017-11-28T07:56:16.619Z,100226.68
2017-11-28T07:58:49.131Z,100224.10
2017-11-28T08:01:23.533Z,100236.64
2017-11-28T08:03:57.624Z,100234.54
2017-11-28T08:06:30.619Z,100233.34
2017-11-28T08:09:03.820Z,100228.25
2017-11-28T08:11:48.006Z,100234.08
2017-11-28T08:14:23.557Z,100236.48
2017-11-28T08:16:58.240Z,100248.00
2017-11-28T08:19:33.425Z,100244.26
2017-11-28T08:22:07.534Z,100249.33
2017-11-28T08:24:46.856Z,100254.42
2017-11-28T08:27:20.625Z,100248.16
2017-11-28T08:29:57.246Z,100226.53
2017-11-28T08:32:40.075Z,100233.66
2017-11-28T08:35:15.105Z,100236.34
2017-11-28T08:37:48.390Z,100236.80
2017-11-28T08:40:27.407Z,100228.39
2017-11-28T08:43:00.350Z,100250.27
2017-11-28T08:45:43.477Z,100246.59
2017-11-28T08:48:17.064Z,100254.31
2017-11-28T08:50:57.050Z,100252.80
2017-11-28T08:53:29.658Z,100253.67
2017-11-28T08:56:03.758Z,100255.48
2017-11-28T09:01:15.672Z,100256.69
2017-11-28T09:03:47.857Z,100245.17
2017-11-28T09:06:27.373Z,100253.69
2017-11-28T09:09:01.372Z,100247.70
2017-11-28T09:11:35.464Z,100245.47
2017-11-28T09:14:11.753Z,100238.50
2017-11-28T09:16:45.457Z,100243.97
2017-11-28T09:19:18.772Z,100237.81
2017-11-28T09:21:51.780Z,100247.23
2017-11-28T09:24:25.255Z,100242.53
2017-11-28T09:26:58.163Z,100247.30
2017-11-28T09:29:31.076Z,100240.48
2017-11-28T09:32:05.958Z,100248.78
2017-11-28T09:34:40.975Z,100251.63
2017-11-28T09:37:13.378Z,100250.28
2017-11-28T09:39:46.381Z,100251.64
2017-11-28T09:42:19.785Z,100249.72
2017-11-28T09:44:55.590Z,100243.87
2017-11-28T09:47:28.891Z,100242.95
2017-11-28T09:50:00.796Z,100249.30
2017-11-28T09:52:33.994Z,100251.97
2017-11-28T09:55:06.211Z,100254.35
2017-11-28T09:57:41.999Z,100232.02
2017-11-28T10:00:17.486Z,100252.89
2017-11-28T10:02:50.320Z,100261.11
2017-11-28T10:05:26.068Z,100250.84
2017-11-28T10:07:59.732Z,100244.54
2017-11-28T10:10:34.605Z,100247.88
2017-11-28T10:13:09.108Z,100244.52
2017-11-28T10:18:30.702Z,100246.44
2017-11-28T10:21:07.405Z,100237.21
2017-11-28T10:23:41.091Z,100246.27
2017-11-28T10:26:13.894Z,100247.30
2017-11-28T10:28:47.026Z,100249.20
2017-11-28T10:31:22.595Z,100236.13
2017-11-28T10:33:53.853Z,100233.58
2017-11-28T10:36:27.692Z,100236.64
2017-11-28T10:38:58.698Z,100232.63
2017-11-28T10:41:34.793Z,100237.02
2017-11-28T10:44:09.038Z,100234.41
2017-11-28T10:46:40.471Z,100229.88
2017-11-28T10:49:15.698Z,100226.19
2017-11-28T10:51:51.713Z,100217.10
2017-11-28T10:54:24.510Z,100223.37
2017-11-28T10:56:57.485Z,100214.63
2017-11-28T10:59:31.192Z,100213.28
2017-11-28T11:02:16.790Z,100201.92
2017-11-28T11:05:08.891Z,100207.48
2017-11-28T11:07:48.036Z,100176.58
2017-11-28T11:10:22.172Z,100205.75
2017-11-28T11:12:58.107Z,100212.27
2017-11-28T11:15:32.804Z,100204.33
2017-11-28T11:18:07.830Z,100210.41
2017-11-28T11:23:19.383Z,100205.16
2017-11-28T11:25:51.054Z,100205.53
2017-11-28T11:28:22.691Z,100197.39
2017-11-28T11:31:03.173Z,100204.58
2017-11-28T11:36:15.057Z,100193.34
2017-11-28T11:38:47.964Z,100197.34
2017-11-28T11:41:27.356Z,100194.69
2017-11-28T11:44:01.784Z,100199.31
2017-11-28T11:46:48.586Z,100188.25
2017-11-28T11:49:20.916Z,100189.75
2017-11-28T11:51:58.591Z,100185.89
2017-11-28T11:54:43.831Z,100182.25
2017-11-28T11:57:17.057Z,100174.44
2017-11-28T11:59:50.840Z,100177.84
2017-11-28T12:02:26.449Z,100174.72
2017-11-28T12:05:01.417Z,100147.98
2017-11-28T12:07:34.127Z,100167.08
2017-11-28T12:10:17.633Z,100166.19
2017-11-28T12:12:52.133Z,100166.28
2017-11-28T12:15:24.846Z,100170.25
2017-11-28T12:18:01.781Z,100162.41
2017-11-28T12:20:36.772Z,100156.91
2017-11-28T12:23:11.640Z,100160.55
2017-11-28T12:25:52.732Z,100157.56
2017-11-28T12:28:28.131Z,100151.02
2017-11-28T12:31:02.182Z,100154.55
2017-11-28T12:33:42.751Z,100146.38
2017-11-28T12:36:24.554Z,100150.34
2017-11-28T12:38:57.230Z,100154.72
2017-11-28T12:41:28.925Z,100149.76
2017-11-28T12:44:04.526Z,100146.88
2017-11-28T12:46:39.406Z,100151.73
2017-11-28T12:49:14.822Z,100148.28
2017-11-28T12:51:50.538Z,100145.62
2017-11-28T12:54:25.076Z,100145.06
2017-11-28T12:57:02.412Z,100141.73
2017-11-28T12:59:34.809Z,100138.30
2017-11-28T13:02:09.042Z,100141.53
2017-11-28T13:04:48.937Z,100136.75
2017-11-28T13:07:21.763Z,100135.31
2017-11-28T13:09:56.276Z,100126.01
2017-11-28T13:12:39.262Z,100125.53
2017-11-28T13:15:16.372Z,100132.54
2017-11-28T13:17:51.178Z,100129.13
2017-11-28T13:20:52.641Z,100128.73
2017-11-28T13:23:26.452Z,100119.41
2017-11-28T13:26:00.212Z,100128.39
2017-11-28T13:28:33.723Z,100121.66
2017-11-28T13:31:15.768Z,100115.64
2017-11-28T13:34:11.838Z,100126.48
2017-11-28T13:36:46.012Z,100116.95
2017-11-28T13:39:23.403Z,100108.02
2017-11-28T13:41:58.058Z,100119.37
2017-11-28T13:44:31.881Z,100120.94
2017-11-28T13:47:05.268Z,100108.71
2017-11-28T13:49:42.453Z,100107.31
2017-11-28T13:52:15.850Z,100107.95
2017-11-28T13:54:48.557Z,100109.11
2017-11-28T13:57:21.438Z,100117.47
2017-11-28T13:59:53.506Z,100114.36
2017-11-28T14:02:28.289Z,100112.43
2017-11-28T14:05:05.798Z,100111.72
2017-11-28T14:07:39.148Z,100120.09
2017-11-28T14:10:14.953Z,100117.80
2017-11-28T14:12:48.577Z,100115.37
2017-11-28T14:15:27.368Z,100124.41
2017-11-28T14:18:02.379Z,100123.32
2017-11-28T14:20:35.780Z,100117.69
2017-11-28T14:23:12.817Z,100098.70
2017-11-28T14:25:51.809Z,100105.25
2017-11-28T14:28:26.978Z,100104.45
2017-11-28T14:31:09.212Z,100114.46
2017-11-28T14:33:46.138Z,100120.59
2017-11-28T14:36:21.274Z,100117.72
2017-11-28T14:38:56.156Z,100117.79
2017-11-28T14:41:32.218Z,100116.32
2017-11-28T14:44:07.802Z,100116.11
2017-11-28T14:46:47.008Z,100113.82
2017-11-28T14:49:20.884Z,100112.31
2017-11-28T14:51:52.677Z,100113.03
2017-11-28T14:54:28.363Z,100114.59
2017-11-28T14:57:00.500Z,100116.23
2017-11-28T14:59:38.605Z,100111.03
2017-11-28T15:02:17.723Z,100101.94
2017-11-28T15:05:02.912Z,100105.02
2017-11-28T15:07:38.876Z,100103.64
2017-11-28T15:10:12.474Z,100103.89
2017-11-28T15:12:48.788Z,100106.75
2017-11-28T15:15:34.281Z,100110.02
2017-11-28T15:18:08.879Z,100103.84
2017-11-28T15:20:50.530Z,100108.93
2017-11-28T15:23:29.705Z,100110.61
2017-11-28T15:26:04.027Z,100107.45
2017-11-28T15:28:37.825Z,100101.08
2017-11-28T15:31:14.397Z,100104.41
2017-11-28T15:33:49.610Z,100102.73
2017-11-28T15:36:24.713Z,100098.28
2017-11-28T15:39:05.672Z,100094.34
2017-11-28T15:41:38.387Z,100079.86
2017-11-28T15:44:11.539Z,100089.89
2017-11-28T15:46:48.684Z,100096.03
2017-11-28T15:49:27.114Z,100092.14
2017-11-28T15:52:01.517Z,100097.53
2017-11-28T15:54:32.902Z,100096.59
2017-11-28T15:57:04.051Z,100091.17
2017-11-28T15:59:38.704Z,100104.73
2017-11-28T16:02:10.695Z,100100.77
2017-11-28T16:04:44.245Z,100093.70
2017-11-28T16:07:18.056Z,100097.02
2017-11-28T16:09:54.284Z,100097.80
2017-11-28T16:12:26.063Z,100105.19
2017-11-28T16:15:04.113Z,100102.03
2017-11-28T16:17:38.998Z,100101.61
2017-11-28T16:20:10.851Z,100115.84
2017-11-28T16:22:48.305Z,100102.45
2017-11-28T16:25:29.861Z,100099.98
2017-11-28T16:28:14.383Z,100102.23
2017-11-28T16:30:50.994Z,100099.64
2017-11-28T16:33:23.970Z,100090.85
2017-11-28T16:36:00.935Z,100090.83
2017-11-28T16:38:37.255Z,100090.48
2017-11-28T16:41:13.332Z,100088.88
2017-11-28T16:43:45.832Z,100088.17
2017-11-28T16:46:21.291Z,100091.13
2017-11-28T16:51:39.359Z,100087.99
2017-11-28T16:54:17.091Z,100080.71
2017-11-28T16:56:51.204Z,100086.12
2017-11-28T16:59:22.342Z,100085.94
2017-11-28T17:01:57.058Z,100080.25
2017-11-28T17:04:30.146Z,100083.52
2017-11-28T17:07:13.370Z,100091.08
2017-11-28T17:09:48.242Z,100084.95
2017-11-28T17:12:22.847Z,100083.56
2017-11-28T17:15:01.091Z,100082.02
2017-11-28T17:17:38.465Z,100074.67
2017-11-28T17:20:12.671Z,100083.79
2017-11-28T17:25:29.171Z,100080.84
2017-11-28T17:28:14.811Z,100089.10
2017-11-28T17:30:48.744Z,100080.06
2017-11-28T17:33:21.973Z,100090.16
2017-11-28T17:35:55.957Z,100090.38
2017-11-28T17:38:28.766Z,100084.66
2017-11-28T17:41:04.423Z,100091.99
2017-11-28T17:43:39.473Z,100089.39
2017-11-28T17:46:16.731Z,100067.36
2017-11-28T17:48:52.308Z,100085.22
2017-11-28T17:51:26.329Z,100088.59
2017-11-28T17:54:01.706Z,100089.16
2017-11-28T17:56:35.140Z,100076.88
2017-11-28T17:59:10.226Z,100056.02
2017-11-28T18:01:44.219Z,100070.13
2017-11-28T18:04:18.232Z,100086.91
2017-11-28T18:06:51.066Z,100083.95
2017-11-28T18:09:30.002Z,100080.16
2017-11-28T18:12:13.497Z,100085.34
2017-11-28T18:14:59.093Z,100075.56
2017-11-28T18:17:34.176Z,100078.48
2017-11-28T18:20:06.665Z,100074.07
2017-11-28T18:22:44.572Z,100077.16
2017-11-28T18:25:18.187Z,100071.41
2017-11-28T18:27:52.183Z,100068.73
2017-11-28T18:30:24.906Z,100060.39
2017-11-28T18:32:58.303Z,100073.08
2017-11-28T18:35:30.913Z,100061.46
2017-11-28T18:38:04.364Z,100066.58
2017-11-28T18:40:57.966Z,100066.58
2017-11-28T18:43:30.269Z,100073.30
2017-11-28T18:46:02.989Z,100079.18
2017-11-28T18:48:36.784Z,100077.70
2017-11-28T18:51:13.015Z,100077.89
2017-11-28T18:53:47.001Z,100081.47
2017-11-28T18:56:22.631Z,100074.97
2017-11-28T18:58:54.974Z,100071.34
2017-11-28T19:01:28.378Z,100078.75
2017-11-28T19:04:02.180Z,100079.72
2017-11-28T19:06:42.188Z,100072.73
2017-11-28T19:09:16.699Z,100083.08
2017-11-28T19:11:50.572Z,100031.91
2017-11-28T19:14:24.517Z,100068.69
2017-11-28T19:17:09.570Z,100071.02
2017-11-28T19:19:45.964Z,100072.41
2017-11-28T19:22:19.401Z,100071.34
2017-11-28T19:24:53.220Z,100079.07
2017-11-28T19:27:35.208Z,100073.09
2017-11-28T19:30:20.875Z,100083.28
2017-11-28T19:32:56.047Z,100075.61
2017-11-28T19:35:34.310Z,100080.86
2017-11-28T19:38:13.007Z,100086.84
2017-11-28T19:40:58.613Z,100088.88
2017-11-28T19:43:35.026Z,100084.05
2017-11-28T19:46:10.028Z,100085.45
2017-11-28T19:48:45.036Z,100086.71
2017-11-28T19:54:10.658Z,100070.69
2017-11-28T19:57:03.470Z,100075.55
2017-11-28T20:05:03.152Z,100057.90
2017-11-28T20:07:47.257Z,100055.30
2017-11-28T20:10:20.314Z,100080.86
2017-11-28T20:12:56.451Z,100067.85
2017-11-28T20:15:35.852Z,100070.86
2017-11-28T20:18:15.287Z,100069.36
2017-11-28T20:20:50.276Z,100073.63
2017-11-28T20:23:23.868Z,100076.28
2017-11-28T20:25:58.775Z,100068.45
2017-11-28T20:28:33.758Z,100076.05
2017-11-28T20:31:10.900Z,100071.64
2017-11-28T20:33:42.246Z,100079.88
2017-11-28T20:36:17.236Z,100081.63
2017-11-28T20:38:50.445Z,100080.37
2017-11-28T20:41:23.368Z,100074.53
2017-11-28T20:43:58.767Z,100077.54
2017-11-28T20:46:34.677Z,100078.75
2017-11-28T20:49:14.441Z,100084.92
2017-11-28T20:51:50.558Z,100092.92
2017-11-28T20:54:24.831Z,100087.52
2017-11-28T20:56:59.828Z,100091.90
2017-11-28T20:59:31.397Z,100087.63
2017-11-28T21:02:03.882Z,100083.05
2017-11-28T21:04:39.369Z,100083.25
2017-11-28T21:07:14.069Z,100082.55
2017-11-28T21:09:47.608Z,100081.55
2017-11-28T21:12:20.976Z,100084.69
2017-11-28T21:14:53.741Z,100081.98
2017-11-28T21:17:42.962Z,100075.53
2017-11-28T21:20:16.644Z,100075.39
2017-11-28T21:22:50.844Z,100077.53
2017-11-28T21:25:26.142Z,100077.33
2017-11-28T21:28:03.754Z,100075.01
2017-11-28T21:30:37.770Z,100077.17
2017-11-28T21:33:13.350Z,100069.39
2017-11-28T21:35:52.697Z,100067.12
2017-11-28T21:38:25.552Z,100079.34
2017-11-28T21:40:58.977Z,100062.40
2017-11-28T21:43:32.334Z,100065.97
2017-11-28T21:46:05.338Z,100059.83
2017-11-28T21:48:37.825Z,100061.09
2017-11-28T21:51:15.063Z,100052.78
2017-11-28T21:53:49.097Z,100062.14
2017-11-28T21:56:24.257Z,100064.15
2017-11-28T21:58:58.146Z,100060.11
2017-11-28T22:01:36.279Z,100059.67
2017-11-28T22:04:09.046Z,100059.82
2017-11-28T22:06:41.730Z,100061.81
2017-11-28T22:09:14.650Z,100052.86
2017-11-28T22:11:50.255Z,100055.20
2017-11-28T22:14:23.341Z,100056.39
2017-11-28T22:17:07.361Z,100051.91
2017-11-28T22:19:47.756Z,100050.77
2017-11-28T22:22:21.252Z,100061.64
2017-11-28T22:24:56.660Z,100064.48
2017-11-28T22:27:30.867Z,100059.55
2017-11-28T22:30:05.484Z,100064.85
2017-11-28T22:32:37.959Z,100060.72
2017-11-28T22:35:12.114Z,100056.95
2017-11-28T22:37:52.980Z,100061.70
2017-11-28T22:40:25.365Z,100060.82
2017-11-28T22:42:57.762Z,100068.91
2017-11-28T22:45:31.347Z,100058.49
2017-11-28T22:48:04.150Z,100061.64
2017-11-28T22:50:36.178Z,100064.50
2017-11-28T22:53:10.134Z,100057.56
2017-11-28T22:55:43.257Z,100060.14
2017-11-28T22:58:16.447Z,100058.95
2017-11-28T23:00:50.577Z,100059.66
2017-11-28T23:03:23.736Z,100061.08
2017-11-28T23:05:54.969Z,100061.05
2017-11-28T23:08:27.760Z,100060.47
2017-11-28T23:11:04.536Z,100058.70
2017-11-28T23:13:51.956Z,100060.47
2017-11-28T23:16:26.863Z,100055.53
2017-11-28T23:19:01.398Z,100058.91
2017-11-28T23:21:34.059Z,100049.85
2017-11-28T23:24:06.274Z,100054.91
2017-11-28T23:26:39.185Z,100062.41
2017-11-28T23:29:11.695Z,100066.52
2017-11-28T23:31:45.076Z,100054.37
2017-11-28T23:34:17.686Z,100057.68
2017-11-28T23:36:52.075Z,100056.78
2017-11-28T23:39:23.979Z,100069.59
2017-11-28T23:41:58.100Z,100073.70
2017-11-28T23:44:29.788Z,100069.56
2017-11-28T23:47:01.516Z,100069.35
2017-11-28T23:49:36.546Z,100060.18
2017-11-28T23:52:09.188Z,100061.54
2017-11-28T23:54:43.482Z,100061.22
2017-11-28T23:57:16.274Z,100063.73
2017-11-28T23:59:48.481Z,100060.78
